createdAt,value
2019-03-23T00:02:12.693Z,10.56
2019-03-23T00:08:17.401Z,10.45
2019-03-23T00:14:22.044Z,10.46
2019-03-23T00:20:26.602Z,10.38
2019-03-23T00:26:31.223Z,10.28
2019-03-23T00:32:35.946Z,10.52
2019-03-23T00:38:40.504Z,10.35
2019-03-23T00:44:45.080Z,10.35
2019-03-23T00:50:49.628Z,10.18
2019-03-23T00:56:54.185Z,10.12
2019-03-23T01:02:58.751Z,10.14
2019-03-23T01:09:06.660Z,10.25
2019-03-23T01:15:13.926Z,9.83
2019-03-23T01:21:18.534Z,9.78
2019-03-23T01:27:23.089Z,9.59
2019-03-23T01:33:27.649Z,9.42
2019-03-23T01:39:32.201Z,9.44
2019-03-23T01:45:36.827Z,9.18
2019-03-23T01:51:41.453Z,9.31
2019-03-23T01:57:46.009Z,9.14
2019-03-23T02:03:50.646Z,9.10
2019-03-23T02:09:55.200Z,8.92
2019-03-23T02:15:59.827Z,8.83
2019-03-23T02:22:04.453Z,8.89
2019-03-23T02:28:09.021Z,8.76
2019-03-23T02:34:13.577Z,8.51
2019-03-23T02:40:18.149Z,8.50
2019-03-23T02:46:22.709Z,8.50
2019-03-23T02:52:27.268Z,8.26
2019-03-23T02:58:31.844Z,8.22
2019-03-23T03:04:36.407Z,8.13
2019-03-23T03:10:42.196Z,8.09
2019-03-23T03:16:46.746Z,8.14
2019-03-23T03:22:51.309Z,8.05
2019-03-23T03:28:55.849Z,8.03
2019-03-23T03:35:00.743Z,8.06
2019-03-23T03:41:05.531Z,7.78
2019-03-23T03:47:10.092Z,7.72
2019-03-23T03:53:14.640Z,7.58
2019-03-23T03:59:19.208Z,7.50
2019-03-23T04:05:23.788Z,7.42
2019-03-23T04:11:28.320Z,7.15
2019-03-23T04:17:32.883Z,6.96
2019-03-23T04:23:37.434Z,6.84
2019-03-23T04:29:41.981Z,6.79
2019-03-23T04:35:46.547Z,6.52
2019-03-23T04:41:51.169Z,6.37
2019-03-23T04:47:55.719Z,6.25
2019-03-23T04:54:00.273Z,6.45
2019-03-23T05:00:09.044Z,6.45
2019-03-23T05:06:13.610Z,6.53
2019-03-23T05:12:18.161Z,6.57
2019-03-23T05:18:22.716Z,6.74
2019-03-23T05:24:27.269Z,6.65
2019-03-23T05:30:31.826Z,6.54
2019-03-23T05:36:36.488Z,6.49
2019-03-23T05:42:41.045Z,6.40
2019-03-23T05:48:45.607Z,6.29
2019-03-23T05:54:50.168Z,6.29
2019-03-23T06:00:54.724Z,6.41
2019-03-23T06:06:59.283Z,6.27
2019-03-23T06:13:03.909Z,6.42
2019-03-23T06:19:08.465Z,6.68
2019-03-23T06:25:13.044Z,6.70
2019-03-23T06:31:17.592Z,6.89
2019-03-23T06:37:22.142Z,7.12
2019-03-23T06:43:26.696Z,7.17
2019-03-23T06:49:31.253Z,7.68
2019-03-23T06:55:36.082Z,7.53
2019-03-23T07:01:40.637Z,7.41
2019-03-23T07:07:45.189Z,7.59
2019-03-23T07:13:49.757Z,9.55
2019-03-23T07:19:54.323Z,12.90
2019-03-23T07:25:58.895Z,15.29
2019-03-23T07:32:05.947Z,17.21
2019-03-23T07:38:09.757Z,18.11
2019-03-23T07:44:14.323Z,16.91
2019-03-23T07:50:18.963Z,14.92
2019-03-23T07:56:23.534Z,14.00
2019-03-23T08:02:28.105Z,13.79
2019-03-23T08:08:32.680Z,13.48
2019-03-23T08:14:37.322Z,13.60
2019-03-23T08:20:41.962Z,13.75
2019-03-23T08:26:46.545Z,14.21
2019-03-23T08:32:51.277Z,15.06
2019-03-23T08:38:55.915Z,14.99
2019-03-23T08:45:00.501Z,15.71
2019-03-23T08:51:05.217Z,16.96
2019-03-23T08:57:09.778Z,17.93
2019-03-23T09:03:14.429Z,18.99
2019-03-23T09:09:18.994Z,20.23
2019-03-23T09:15:23.645Z,21.82
2019-03-23T09:21:28.223Z,23.42
2019-03-23T09:27:32.866Z,24.23
2019-03-23T09:33:37.457Z,26.04
2019-03-23T09:39:42.025Z,24.66
2019-03-23T09:45:46.606Z,21.11
2019-03-23T09:51:51.171Z,19.95
2019-03-23T09:57:55.751Z,20.15
2019-03-23T10:04:00.335Z,19.11
2019-03-23T10:10:06.412Z,19.94
2019-03-23T10:16:11.003Z,19.56
2019-03-23T10:22:15.593Z,18.54
2019-03-23T10:28:20.158Z,18.31
2019-03-23T10:34:24.722Z,18.62
2019-03-23T10:40:32.767Z,18.17
2019-03-23T10:46:35.586Z,19.74
2019-03-23T10:52:40.255Z,20.81
2019-03-23T10:58:44.835Z,21.14
2019-03-23T11:04:49.564Z,21.68
2019-03-23T11:10:54.135Z,20.42
2019-03-23T11:16:58.705Z,21.22
2019-03-23T11:23:03.265Z,19.58
2019-03-23T11:29:08.526Z,18.05
2019-03-23T11:35:13.669Z,16.77
2019-03-23T11:41:18.316Z,15.67
2019-03-23T11:47:22.931Z,14.72
2019-03-23T11:53:27.528Z,14.70
2019-03-23T11:59:32.108Z,14.31
2019-03-23T12:05:36.677Z,14.01
2019-03-23T12:11:41.258Z,14.25
2019-03-23T12:17:45.996Z,13.87
2019-03-23T12:23:50.561Z,13.79
2019-03-23T12:29:55.153Z,13.56
2019-03-23T12:35:59.825Z,13.34
2019-03-23T12:42:04.404Z,13.63
2019-03-23T12:48:08.979Z,13.98
2019-03-23T12:54:13.549Z,13.55
2019-03-23T13:00:18.545Z,12.90
2019-03-23T13:06:23.136Z,13.27
2019-03-23T13:12:27.729Z,14.20
2019-03-23T13:18:32.446Z,14.40
2019-03-23T13:24:37.025Z,12.90
2019-03-23T13:30:41.603Z,12.23
2019-03-23T13:36:46.189Z,12.13
2019-03-23T13:42:50.758Z,12.20
2019-03-23T13:48:55.402Z,12.55
2019-03-23T13:55:00.167Z,13.13
2019-03-23T14:01:04.879Z,13.87
2019-03-23T14:07:10.355Z,15.57
2019-03-23T14:13:14.931Z,17.31
2019-03-23T14:19:19.652Z,17.65
2019-03-23T14:25:24.218Z,18.53
2019-03-23T14:31:28.800Z,18.96
2019-03-23T14:37:33.367Z,18.64
2019-03-23T14:43:37.930Z,19.78
2019-03-23T14:49:42.523Z,20.05
2019-03-23T14:55:47.319Z,19.83
2019-03-23T15:01:51.976Z,20.55
2019-03-23T15:07:56.629Z,21.41
2019-03-23T15:14:01.195Z,21.98
2019-03-23T15:20:07.830Z,21.65
2019-03-23T15:26:12.519Z,21.48
2019-03-23T15:32:17.096Z,21.61
2019-03-23T15:38:21.670Z,20.00
2019-03-23T15:44:26.248Z,20.07
2019-03-23T15:50:30.829Z,20.18
2019-03-23T15:56:35.586Z,20.67
2019-03-23T16:02:42.904Z,20.25
2019-03-23T16:08:47.687Z,20.07
2019-03-23T16:14:52.271Z,19.37
2019-03-23T16:20:56.893Z,18.46
2019-03-23T16:27:01.569Z,16.77
2019-03-23T16:33:06.325Z,15.42
2019-03-23T16:39:10.965Z,14.79
2019-03-23T16:45:16.356Z,14.39
2019-03-23T16:51:20.952Z,13.78
2019-03-23T16:57:25.735Z,13.55
2019-03-23T17:03:30.316Z,13.43
2019-03-23T17:09:34.876Z,13.19
2019-03-23T17:15:39.435Z,12.96
2019-03-23T17:21:44.166Z,12.76
2019-03-23T17:27:48.745Z,12.71
2019-03-23T17:33:53.400Z,12.52
2019-03-23T17:39:57.953Z,12.26
2019-03-23T17:46:02.673Z,12.25
2019-03-23T17:52:07.352Z,12.26
2019-03-23T17:58:11.940Z,12.05
2019-03-23T18:04:16.580Z,12.05
2019-03-23T18:10:21.236Z,12.02
2019-03-23T18:16:25.952Z,11.88
2019-03-23T18:22:30.686Z,11.86
2019-03-23T18:28:35.315Z,11.93
2019-03-23T18:34:39.896Z,11.97
2019-03-23T18:40:44.650Z,11.83
2019-03-23T18:46:49.457Z,11.88
2019-03-23T18:52:54.016Z,11.85
2019-03-23T18:58:58.587Z,12.00
2019-03-23T19:05:03.254Z,11.68
2019-03-23T19:11:07.827Z,11.63
2019-03-23T19:17:12.408Z,11.73
2019-03-23T19:23:16.982Z,11.53
2019-03-23T19:29:21.567Z,11.73
2019-03-23T19:35:26.308Z,11.64
2019-03-23T19:41:30.994Z,11.51
2019-03-23T19:47:35.652Z,11.54
2019-03-23T19:53:40.409Z,11.45
2019-03-23T19:59:44.992Z,11.58
2019-03-23T20:05:49.640Z,11.53
2019-03-23T20:11:54.225Z,11.31
2019-03-23T20:17:58.819Z,11.11
2019-03-23T20:24:03.397Z,11.24
2019-03-23T20:30:11.487Z,10.99
2019-03-23T20:36:16.102Z,11.13
2019-03-23T20:42:20.760Z,11.09
2019-03-23T20:48:25.689Z,10.96
2019-03-23T20:54:30.403Z,10.80
2019-03-23T21:00:35.010Z,10.51
2019-03-23T21:06:39.591Z,10.57
2019-03-23T21:12:44.181Z,10.44
2019-03-23T21:18:48.761Z,10.39
2019-03-23T21:24:53.325Z,10.38
2019-03-23T21:30:57.897Z,10.44
2019-03-23T21:37:02.535Z,10.34
2019-03-23T21:43:07.103Z,10.10
2019-03-23T21:49:11.670Z,9.91
2019-03-23T21:55:16.478Z,10.11
2019-03-23T22:01:21.037Z,10.08
2019-03-23T22:07:25.598Z,10.12
2019-03-23T22:13:30.173Z,10.06
2019-03-23T22:19:34.810Z,9.86
2019-03-23T22:25:39.434Z,10.13
2019-03-23T22:31:44.006Z,10.04
2019-03-23T22:37:48.570Z,9.82
2019-03-23T22:43:53.112Z,9.79
2019-03-23T22:49:57.682Z,9.77
2019-03-23T22:56:02.317Z,9.79
2019-03-23T23:02:06.887Z,9.65
2019-03-23T23:08:11.470Z,9.52
2019-03-23T23:14:16.011Z,9.42
2019-03-23T23:20:20.596Z,9.65
2019-03-23T23:26:25.249Z,9.58
2019-03-23T23:32:29.796Z,9.49
2019-03-23T23:38:34.365Z,9.60
2019-03-23T23:44:38.918Z,9.50
2019-03-23T23:50:43.470Z,9.32
2019-03-23T23:56:48.153Z,9.46
